createdAt,value
2022-10-17T00:01:39.232Z,10.52
2022-10-17T00:04:49.165Z,10.56
2022-10-17T00:07:47.411Z,10.56
2022-10-17T00:11:03.851Z,10.57
2022-10-17T00:14:04.059Z,10.58
2022-10-17T00:17:36.563Z,10.58
2022-10-17T00:20:40.045Z,10.57
2022-10-17T00:27:03.068Z,10.60
2022-10-17T00:34:00.844Z,10.68
2022-10-17T00:37:32.167Z,10.71
2022-10-17T00:40:46.216Z,10.70
2022-10-17T00:50:59.411Z,10.80
2022-10-17T00:54:15.606Z,10.81
2022-10-17T00:57:17.132Z,10.85
2022-10-17T01:00:08.981Z,10.98
2022-10-17T01:02:57.235Z,10.91
2022-10-17T01:09:01.059Z,10.95
2022-10-17T01:16:16.281Z,11.02
2022-10-17T01:19:35.548Z,11.01
2022-10-17T01:22:31.651Z,11.02
2022-10-17T01:25:32.222Z,11.05
2022-10-17T01:31:55.288Z,11.07
2022-10-17T01:35:07.810Z,11.09
2022-10-17T01:41:54.809Z,11.05
2022-10-17T01:45:08.457Z,11.07
2022-10-17T01:51:55.872Z,11.11
2022-10-17T01:55:12.016Z,11.04
2022-10-17T02:01:30.789Z,11.01
2022-10-17T02:04:22.442Z,11.01
2022-10-17T02:07:10.463Z,11.06
2022-10-17T02:09:59.511Z,11.03
2022-10-17T02:12:57.239Z,10.97
2022-10-17T02:16:21.499Z,10.90
2022-10-17T02:19:44.746Z,10.79
2022-10-17T02:22:51.238Z,10.77
2022-10-17T02:25:49.534Z,10.72
2022-10-17T02:28:49.143Z,10.66
2022-10-17T02:31:45.751Z,10.63
2022-10-17T02:34:37.632Z,10.59
2022-10-17T02:37:30.083Z,10.54
2022-10-17T02:40:38.101Z,10.54
2022-10-17T02:43:48.584Z,10.49
2022-10-17T02:46:43.887Z,10.44
2022-10-17T02:49:37.737Z,10.42
2022-10-17T02:52:47.616Z,10.33
2022-10-17T02:55:39.775Z,10.23
2022-10-17T02:58:32.669Z,10.33
2022-10-17T03:01:22.342Z,10.32
2022-10-17T03:04:15.356Z,10.38
2022-10-17T03:07:29.542Z,10.45
2022-10-17T03:10:42.790Z,10.56
2022-10-17T03:13:30.259Z,10.65
2022-10-17T03:16:24.675Z,10.71
2022-10-17T03:19:20.492Z,10.78
2022-10-17T03:22:08.518Z,10.88
2022-10-17T03:24:57.407Z,11.04
2022-10-17T03:27:59.831Z,11.10
2022-10-17T03:30:50.197Z,11.13
2022-10-17T03:33:38.119Z,11.15
2022-10-17T03:36:25.667Z,11.11
2022-10-17T03:39:14.357Z,11.11
2022-10-17T03:42:02.794Z,11.14
2022-10-17T03:45:02.018Z,11.15
2022-10-17T03:47:51.775Z,11.25
2022-10-17T03:50:42.837Z,11.26
2022-10-17T03:53:38.684Z,11.37
2022-10-17T03:56:27.886Z,11.35
2022-10-17T03:59:28.494Z,11.40
2022-10-17T04:02:27.943Z,11.44
2022-10-17T04:05:15.351Z,11.42
2022-10-17T04:08:04.734Z,11.37
2022-10-17T04:11:21.775Z,11.32
2022-10-17T04:14:10.431Z,11.32
2022-10-17T04:16:58.732Z,11.34
2022-10-17T04:19:50.237Z,11.42
2022-10-17T04:22:38.847Z,11.44
2022-10-17T04:25:33.481Z,11.42
2022-10-17T04:28:23.522Z,11.36
2022-10-17T04:31:15.332Z,11.32
2022-10-17T04:34:22.008Z,11.24
2022-10-17T04:37:10.536Z,11.23
2022-10-17T04:39:58.332Z,11.26
2022-10-17T04:42:46.548Z,11.26
2022-10-17T04:45:39.491Z,11.31
2022-10-17T04:48:28.895Z,11.32
2022-10-17T04:51:18.771Z,11.31
2022-10-17T04:54:32.256Z,11.31
2022-10-17T04:57:29.916Z,11.28
2022-10-17T05:00:28.075Z,11.38
2022-10-17T05:03:26.877Z,11.44
2022-10-17T05:06:22.811Z,11.44
2022-10-17T05:09:33.261Z,11.42
2022-10-17T05:12:20.564Z,11.42
2022-10-17T05:15:13.707Z,11.46
2022-10-17T05:18:02.518Z,11.49
2022-10-17T05:20:50.637Z,11.51
2022-10-17T05:23:39.817Z,11.49
2022-10-17T05:26:29.255Z,11.50
2022-10-17T05:29:17.802Z,11.54
2022-10-17T05:32:10.820Z,11.64
2022-10-17T05:34:58.086Z,11.69
2022-10-17T05:37:56.236Z,11.74
2022-10-17T05:40:47.637Z,11.79
2022-10-17T05:43:44.781Z,11.84
2022-10-17T05:46:37.007Z,11.90
2022-10-17T05:49:45.073Z,11.94
2022-10-17T05:52:38.816Z,11.94
2022-10-17T05:55:30.933Z,11.91
2022-10-17T05:58:49.384Z,11.96
2022-10-17T06:01:52.118Z,11.94
2022-10-17T06:04:46.364Z,11.87
2022-10-17T06:07:35.772Z,11.91
2022-10-17T06:10:24.640Z,11.88
2022-10-17T06:13:15.119Z,11.98
2022-10-17T06:16:02.480Z,12.03
2022-10-17T06:18:52.525Z,12.06
2022-10-17T06:21:39.969Z,12.08
2022-10-17T06:24:31.820Z,12.07
2022-10-17T06:27:23.171Z,12.18
2022-10-17T06:30:13.226Z,12.26
2022-10-17T06:33:01.313Z,12.29
2022-10-17T06:35:54.355Z,12.33
2022-10-17T06:38:46.004Z,12.40
2022-10-17T06:41:41.439Z,12.42
2022-10-17T06:44:32.664Z,12.52
2022-10-17T06:47:39.019Z,12.58
2022-10-17T06:50:41.049Z,12.62
2022-10-17T06:53:42.900Z,12.74
2022-10-17T06:56:48.693Z,12.85
2022-10-17T06:59:41.947Z,12.98
2022-10-17T07:02:33.518Z,13.16
2022-10-17T07:05:22.436Z,13.37
2022-10-17T07:08:11.634Z,13.58
2022-10-17T07:11:01.319Z,13.76
2022-10-17T07:13:49.595Z,14.01
2022-10-17T07:16:37.368Z,14.17
2022-10-17T07:19:39.659Z,14.40
2022-10-17T07:22:28.941Z,14.62
2022-10-17T07:25:20.610Z,14.77
2022-10-17T07:28:13.172Z,15.05
2022-10-17T07:31:06.644Z,15.21
2022-10-17T07:33:55.052Z,15.47
2022-10-17T07:36:42.981Z,15.51
2022-10-17T07:39:31.362Z,15.66
2022-10-17T07:42:18.872Z,15.78
2022-10-17T07:48:14.470Z,15.92
2022-10-17T07:51:03.813Z,15.97
2022-10-17T07:53:50.994Z,16.03
2022-10-17T07:56:38.550Z,16.10
2022-10-17T07:59:26.683Z,16.21
2022-10-17T08:02:22.942Z,16.37
2022-10-17T08:05:10.670Z,16.41
2022-10-17T08:07:59.759Z,16.70
2022-10-17T08:10:47.202Z,16.82
2022-10-17T08:13:35.180Z,16.85
2022-10-17T08:16:22.667Z,16.80
2022-10-17T08:19:11.668Z,16.81
2022-10-17T08:22:08.822Z,16.82
2022-10-17T08:24:56.531Z,17.01
2022-10-17T08:27:43.613Z,16.88
2022-10-17T08:30:31.810Z,17.09
2022-10-17T08:33:18.881Z,17.21
2022-10-17T08:36:09.586Z,17.42
2022-10-17T08:39:05.528Z,17.47
2022-10-17T08:42:19.450Z,17.50
2022-10-17T08:45:18.506Z,17.73
2022-10-17T08:48:12.646Z,17.60
2022-10-17T08:51:03.831Z,17.75
2022-10-17T08:53:57.200Z,17.79
2022-10-17T08:56:49.727Z,18.00
2022-10-17T08:59:36.815Z,17.99
2022-10-17T09:02:51.750Z,18.04
2022-10-17T09:05:47.803Z,18.13
2022-10-17T09:08:44.998Z,18.19
2022-10-17T09:11:48.375Z,18.19
2022-10-17T09:15:07.091Z,18.48
2022-10-17T09:17:58.568Z,18.45
2022-10-17T09:20:48.948Z,18.37
2022-10-17T09:23:45.508Z,18.59
2022-10-17T09:26:34.429Z,18.73
2022-10-17T09:29:27.710Z,18.87
2022-10-17T09:32:20.561Z,18.84
2022-10-17T09:35:14.628Z,18.92
2022-10-17T09:38:01.756Z,18.95
2022-10-17T09:40:57.112Z,19.13
2022-10-17T09:43:46.723Z,19.12
2022-10-17T09:46:39.516Z,19.31
2022-10-17T09:49:34.723Z,19.52
2022-10-17T09:52:29.334Z,19.48
2022-10-17T09:55:23.709Z,19.69
2022-10-17T09:58:15.165Z,19.81
2022-10-17T10:01:22.714Z,19.83
2022-10-17T10:04:16.065Z,19.98
2022-10-17T10:07:05.300Z,20.12
2022-10-17T10:09:53.235Z,20.29
2022-10-17T10:12:41.202Z,20.54
2022-10-17T10:15:41.345Z,20.76
2022-10-17T10:18:31.840Z,20.75
2022-10-17T10:21:21.977Z,20.84
2022-10-17T10:24:15.002Z,20.80
2022-10-17T10:27:04.687Z,20.85
2022-10-17T10:29:53.774Z,20.79
2022-10-17T10:32:40.341Z,21.04
2022-10-17T10:35:35.612Z,20.99
2022-10-17T10:38:23.780Z,21.22
2022-10-17T10:41:47.328Z,21.32
2022-10-17T10:44:57.314Z,21.32
2022-10-17T10:47:58.766Z,21.50
2022-10-17T10:51:08.082Z,21.54
2022-10-17T10:54:32.744Z,21.64
2022-10-17T10:57:26.971Z,21.66
2022-10-17T11:00:19.005Z,21.77
2022-10-17T11:03:14.057Z,21.85
2022-10-17T11:06:07.009Z,21.87
2022-10-17T11:09:11.386Z,21.79
2022-10-17T11:12:26.829Z,21.80
2022-10-17T11:15:22.828Z,21.90
2022-10-17T11:18:17.580Z,21.99
2022-10-17T11:21:13.551Z,22.11
2022-10-17T11:24:09.759Z,22.19
2022-10-17T11:27:02.279Z,22.16
2022-10-17T11:29:48.937Z,22.12
2022-10-17T11:32:43.587Z,22.28
2022-10-17T11:35:35.198Z,22.35
2022-10-17T11:38:38.140Z,22.16
2022-10-17T11:41:32.696Z,22.41
2022-10-17T11:44:26.453Z,22.35
2022-10-17T11:47:32.141Z,22.49
2022-10-17T11:53:48.897Z,22.51
2022-10-17T11:56:43.482Z,22.64
2022-10-17T11:59:57.722Z,22.60
2022-10-17T12:02:49.534Z,22.61
2022-10-17T12:05:46.903Z,22.74
2022-10-17T12:08:42.532Z,22.94
2022-10-17T12:11:41.574Z,22.81
2022-10-17T12:14:46.802Z,22.85
2022-10-17T12:17:39.060Z,22.82
2022-10-17T12:20:31.740Z,22.75
2022-10-17T12:23:30.059Z,22.69
2022-10-17T12:26:27.320Z,22.79
2022-10-17T12:29:29.720Z,22.79
2022-10-17T12:32:18.086Z,22.78
2022-10-17T12:35:06.099Z,22.89
2022-10-17T12:38:24.670Z,23.05
2022-10-17T12:41:11.889Z,23.15
2022-10-17T12:43:58.338Z,23.16
2022-10-17T12:46:51.240Z,23.14
2022-10-17T12:49:44.219Z,23.29
2022-10-17T12:52:55.987Z,23.36
2022-10-17T12:55:42.910Z,23.29
2022-10-17T12:58:30.597Z,23.36
2022-10-17T13:01:33.656Z,23.39
2022-10-17T13:04:21.601Z,23.47
2022-10-17T13:07:20.861Z,23.49
2022-10-17T13:10:11.620Z,23.44
2022-10-17T13:13:07.884Z,23.57
2022-10-17T13:15:56.192Z,23.45
2022-10-17T13:18:43.193Z,23.61
2022-10-17T13:21:30.411Z,23.60
2022-10-17T13:24:30.248Z,23.57
2022-10-17T13:27:27.235Z,23.48
2022-10-17T13:30:31.202Z,23.47
2022-10-17T13:33:40.727Z,23.50
2022-10-17T13:36:29.084Z,23.49
2022-10-17T13:39:23.103Z,23.45
2022-10-17T13:42:26.209Z,23.48
2022-10-17T13:45:20.258Z,23.38
2022-10-17T13:48:18.188Z,23.43
2022-10-17T13:51:10.488Z,23.30
2022-10-17T13:53:57.927Z,23.30
2022-10-17T13:56:44.876Z,23.37
2022-10-17T13:59:38.153Z,23.32
2022-10-17T14:02:26.959Z,23.23
2022-10-17T14:05:18.307Z,23.18
2022-10-17T14:08:11.773Z,23.17
2022-10-17T14:11:00.111Z,23.11
2022-10-17T14:13:51.355Z,23.23
2022-10-17T14:16:42.318Z,23.14
2022-10-17T14:19:32.606Z,23.35
2022-10-17T14:22:27.783Z,23.38
2022-10-17T14:25:35.919Z,23.29
2022-10-17T14:28:24.111Z,23.29
2022-10-17T14:31:19.681Z,23.30
2022-10-17T14:34:07.574Z,23.22
2022-10-17T14:36:54.962Z,23.35
2022-10-17T14:39:41.621Z,23.41
2022-10-17T14:42:28.507Z,23.26
2022-10-17T14:45:23.804Z,23.25
2022-10-17T14:48:14.540Z,23.27
2022-10-17T14:51:11.333Z,23.08
2022-10-17T14:54:05.521Z,22.92
2022-10-17T14:56:54.419Z,22.98
2022-10-17T14:59:56.471Z,22.89
2022-10-17T15:02:43.677Z,22.88
2022-10-17T15:05:30.441Z,22.84
2022-10-17T15:08:20.367Z,22.81
2022-10-17T15:11:07.064Z,22.84
2022-10-17T15:13:53.839Z,22.66
2022-10-17T15:16:40.635Z,22.59
2022-10-17T15:19:27.442Z,22.62
2022-10-17T15:22:14.939Z,22.55
2022-10-17T15:25:03.307Z,22.36
2022-10-17T15:27:50.183Z,22.31
2022-10-17T15:30:38.004Z,22.26
2022-10-17T15:33:24.564Z,22.19
2022-10-17T15:36:23.062Z,22.02
2022-10-17T15:39:11.693Z,22.02
2022-10-17T15:42:00.078Z,21.84
2022-10-17T15:44:49.714Z,21.79
2022-10-17T15:47:37.657Z,21.67
2022-10-17T15:50:24.468Z,21.50
2022-10-17T15:53:12.996Z,21.55
2022-10-17T15:56:00.527Z,21.51
2022-10-17T15:58:48.757Z,21.45
2022-10-17T16:01:36.093Z,21.41
2022-10-17T16:04:24.195Z,21.57
2022-10-17T16:07:11.844Z,21.41
2022-10-17T16:09:58.399Z,21.27
2022-10-17T16:22:22.094Z,21.20
2022-10-17T16:25:19.615Z,21.21
2022-10-17T16:28:08.399Z,21.10
2022-10-17T16:30:55.059Z,21.12
2022-10-17T16:33:41.962Z,20.90
2022-10-17T16:36:29.457Z,20.91
2022-10-17T16:39:17.771Z,20.92
2022-10-17T16:42:04.674Z,20.77
2022-10-17T16:44:51.715Z,20.88
2022-10-17T16:47:38.548Z,20.75
2022-10-17T16:50:25.644Z,20.53
2022-10-17T17:02:58.880Z,19.95
2022-10-17T17:05:51.799Z,19.65
2022-10-17T17:08:38.641Z,19.61
2022-10-17T17:11:27.706Z,19.52
2022-10-17T17:14:14.493Z,19.31
2022-10-17T17:17:01.086Z,19.30
2022-10-17T17:19:49.256Z,19.18
2022-10-17T17:22:36.248Z,18.98
2022-10-17T17:25:23.122Z,18.88
2022-10-17T17:28:10.420Z,18.69
2022-10-17T17:30:57.131Z,18.58
2022-10-17T17:33:46.086Z,18.51
2022-10-17T17:36:36.486Z,18.47
2022-10-17T17:39:24.074Z,18.43
2022-10-17T17:42:10.694Z,18.44
2022-10-17T17:44:57.517Z,18.44
2022-10-17T17:47:45.624Z,18.44
2022-10-17T17:50:32.954Z,18.48
2022-10-17T17:53:21.047Z,18.38
2022-10-17T17:56:10.261Z,18.35
2022-10-17T17:58:58.758Z,18.35
2022-10-17T18:01:45.492Z,18.45
2022-10-17T18:04:32.082Z,18.28
2022-10-17T18:07:18.885Z,18.25
2022-10-17T18:10:08.803Z,18.22
2022-10-17T18:12:55.761Z,18.23
2022-10-17T18:15:42.881Z,18.31
2022-10-17T18:18:31.103Z,18.23
2022-10-17T18:21:17.737Z,18.22
2022-10-17T18:24:05.344Z,18.42
2022-10-17T18:26:56.186Z,18.52
2022-10-17T18:29:43.283Z,18.51
2022-10-17T18:32:31.896Z,18.53
2022-10-17T18:35:19.017Z,18.68
2022-10-17T18:38:05.465Z,18.80
2022-10-17T18:41:02.598Z,18.59
2022-10-17T18:43:51.705Z,18.48
2022-10-17T18:46:41.019Z,18.31
2022-10-17T18:49:27.656Z,18.32
2022-10-17T18:52:14.491Z,18.23
2022-10-17T18:55:01.258Z,18.10
2022-10-17T18:57:49.100Z,17.99
2022-10-17T19:00:37.678Z,17.91
2022-10-17T19:03:27.349Z,17.87
2022-10-17T19:06:16.521Z,17.76
2022-10-17T19:09:07.832Z,17.71
2022-10-17T19:12:01.401Z,17.63
2022-10-17T19:14:51.341Z,17.60
2022-10-17T19:17:39.259Z,17.47
2022-10-17T19:20:26.106Z,17.46
2022-10-17T19:23:12.897Z,17.50
2022-10-17T19:26:03.701Z,17.46
2022-10-17T19:28:53.796Z,17.42
2022-10-17T19:31:40.532Z,17.19
2022-10-17T19:34:28.884Z,17.15
2022-10-17T19:37:18.338Z,17.15
2022-10-17T19:40:05.613Z,17.22
2022-10-17T19:42:52.300Z,17.21
2022-10-17T19:45:39.500Z,17.36
2022-10-17T19:48:28.352Z,17.21
2022-10-17T19:51:19.382Z,17.21
2022-10-17T19:54:08.250Z,17.08
2022-10-17T19:56:56.557Z,16.98
2022-10-17T19:59:44.576Z,16.89
2022-10-17T20:02:34.320Z,16.87
2022-10-17T20:05:25.910Z,16.80
2022-10-17T20:08:17.205Z,16.73
2022-10-17T20:11:10.969Z,16.65
2022-10-17T20:14:03.949Z,16.62
2022-10-17T20:16:53.631Z,16.61
2022-10-17T20:19:40.208Z,16.57
2022-10-17T20:22:27.045Z,16.67
2022-10-17T20:25:15.060Z,16.70
2022-10-17T20:28:01.980Z,16.67
2022-10-17T20:30:48.787Z,16.58
2022-10-17T20:33:35.717Z,16.49
2022-10-17T20:36:23.627Z,16.47
2022-10-17T20:39:12.352Z,16.42
2022-10-17T20:42:00.396Z,16.37
2022-10-17T20:44:48.310Z,16.41
2022-10-17T20:47:46.049Z,16.39
2022-10-17T20:50:37.492Z,16.57
2022-10-17T20:53:41.778Z,16.37
2022-10-17T20:56:31.374Z,16.23
2022-10-17T20:59:19.895Z,16.14
2022-10-17T21:02:07.627Z,16.07
2022-10-17T21:04:54.480Z,15.99
2022-10-17T21:07:41.336Z,15.91
2022-10-17T21:10:35.320Z,15.92
2022-10-17T21:13:22.604Z,15.77
2022-10-17T21:16:12.443Z,15.67
2022-10-17T21:18:59.853Z,15.58
2022-10-17T21:21:47.461Z,15.57
2022-10-17T21:24:34.487Z,15.43
2022-10-17T21:27:21.233Z,15.43
2022-10-17T21:33:03.203Z,15.25
2022-10-17T21:35:56.347Z,15.15
2022-10-17T21:38:44.733Z,15.32
2022-10-17T21:41:32.707Z,15.30
2022-10-17T21:44:23.703Z,15.34
2022-10-17T21:47:10.969Z,15.23
2022-10-17T21:49:59.396Z,15.18
2022-10-17T21:52:46.476Z,15.19
2022-10-17T21:55:33.650Z,15.19
2022-10-17T21:58:21.121Z,15.27
2022-10-17T22:01:09.927Z,15.28
2022-10-17T22:03:58.490Z,15.25
2022-10-17T22:06:51.125Z,15.23
2022-10-17T22:09:38.254Z,15.34
2022-10-17T22:12:27.170Z,15.38
2022-10-17T22:18:05.837Z,15.29
2022-10-17T22:20:52.888Z,15.40
2022-10-17T22:23:41.065Z,15.31
2022-10-17T22:26:28.632Z,15.29
2022-10-17T22:29:15.487Z,15.40
2022-10-17T22:32:02.449Z,15.40
2022-10-17T22:34:49.096Z,15.39
2022-10-17T22:37:35.770Z,15.38
2022-10-17T22:40:23.944Z,15.43
2022-10-17T22:43:10.668Z,15.52
2022-10-17T22:45:59.823Z,15.47
2022-10-17T22:48:46.323Z,15.44
2022-10-17T22:51:33.209Z,15.46
2022-10-17T22:54:19.940Z,15.44
2022-10-17T22:57:08.441Z,15.45
2022-10-17T22:59:55.174Z,15.47
2022-10-17T23:02:42.222Z,15.43
2022-10-17T23:05:28.603Z,15.46
2022-10-17T23:08:17.923Z,15.34
2022-10-17T23:11:05.329Z,15.35
2022-10-17T23:13:53.591Z,15.44
2022-10-17T23:16:40.133Z,15.47
2022-10-17T23:19:27.023Z,15.56
2022-10-17T23:22:14.733Z,15.54
2022-10-17T23:25:01.482Z,15.54
2022-10-17T23:27:48.183Z,15.55
2022-10-17T23:30:36.831Z,15.57
2022-10-17T23:33:23.534Z,15.55
2022-10-17T23:36:11.385Z,15.51
2022-10-17T23:38:58.816Z,15.44
2022-10-17T23:41:45.485Z,15.41
2022-10-17T23:44:31.974Z,15.37
2022-10-17T23:47:20.277Z,15.36
2022-10-17T23:50:08.159Z,15.34
2022-10-17T23:52:54.865Z,15.32
2022-10-17T23:55:41.802Z,15.31
2022-10-17T23:58:28.366Z,15.32
